createdAt,value
2023-05-14T00:00:28.969Z,98347.00
2023-05-14T00:02:55.757Z,98346.41
2023-05-14T00:05:22.915Z,98343.81
2023-05-14T00:07:49.472Z,98337.28
2023-05-14T00:10:18.527Z,98305.25
2023-05-14T00:12:45.389Z,98351.81
2023-05-14T00:15:12.002Z,98333.34
2023-05-14T00:17:39.031Z,98334.72
2023-05-14T00:20:09.468Z,98335.63
2023-05-14T00:22:37.145Z,98348.56
2023-05-14T00:25:04.310Z,98338.88
2023-05-14T00:27:30.868Z,98368.69
2023-05-14T00:29:57.387Z,98372.03
2023-05-14T00:32:24.654Z,98361.53
2023-05-14T00:34:51.333Z,98367.19
2023-05-14T00:37:17.848Z,98351.00
2023-05-14T00:39:44.383Z,98369.84
2023-05-14T00:42:10.960Z,98383.66
2023-05-14T00:44:37.600Z,98376.19
2023-05-14T00:47:04.855Z,98361.44
2023-05-14T00:49:32.387Z,98326.78
2023-05-14T00:52:00.966Z,98352.59
2023-05-14T00:54:28.815Z,98372.63
2023-05-14T00:56:56.019Z,98376.50
2023-05-14T00:59:22.593Z,98356.75
2023-05-14T01:01:49.259Z,98369.06
2023-05-14T01:04:15.943Z,98355.81
2023-05-14T01:06:48.348Z,98374.03
2023-05-14T01:09:20.555Z,98362.81
2023-05-14T01:12:05.939Z,98382.84
2023-05-14T01:14:46.274Z,98359.97
2023-05-14T01:17:14.193Z,98349.28
2023-05-14T01:19:44.032Z,98350.50
2023-05-14T01:22:11.756Z,98351.56
2023-05-14T01:24:39.122Z,98357.50
2023-05-14T01:27:28.599Z,98361.97
2023-05-14T01:30:08.138Z,98361.78
2023-05-14T01:32:35.606Z,98330.03
2023-05-14T01:35:03.428Z,98344.63
2023-05-14T01:37:30.643Z,98348.59
2023-05-14T01:39:57.685Z,98354.78
2023-05-14T01:42:25.087Z,98328.94
2023-05-14T01:44:51.694Z,98345.97
2023-05-14T01:47:18.234Z,98317.53
2023-05-14T01:49:44.737Z,98313.06
2023-05-14T01:52:12.110Z,98331.38
2023-05-14T01:54:38.805Z,98327.28
2023-05-14T01:57:05.674Z,98305.31
2023-05-14T01:59:32.197Z,98312.41
2023-05-14T02:01:58.855Z,98297.63
2023-05-14T02:04:25.843Z,98302.50
2023-05-14T02:06:52.606Z,98301.75
2023-05-14T02:09:19.187Z,98300.50
2023-05-14T02:11:45.765Z,98277.34
2023-05-14T02:14:12.320Z,98294.22
2023-05-14T02:16:39.410Z,98279.34
2023-05-14T02:19:06.464Z,98291.75
2023-05-14T02:21:33.029Z,98283.19
2023-05-14T02:23:59.511Z,98283.84
2023-05-14T02:26:26.122Z,98284.34
2023-05-14T02:28:53.091Z,98295.03
2023-05-14T02:31:19.695Z,98296.44
2023-05-14T02:33:46.260Z,98260.25
2023-05-14T02:36:12.817Z,98252.63
2023-05-14T02:38:39.306Z,98268.00
2023-05-14T02:41:05.931Z,98233.34
2023-05-14T02:43:32.496Z,98250.88
2023-05-14T02:45:59.084Z,98236.56
2023-05-14T02:48:26.179Z,98215.13
2023-05-14T02:50:52.876Z,98229.19
2023-05-14T02:53:19.472Z,98240.91
2023-05-14T02:55:46.134Z,98236.91
2023-05-14T02:58:12.745Z,98238.59
2023-05-14T03:00:39.306Z,98233.16
2023-05-14T03:03:06.544Z,98243.06
2023-05-14T03:05:33.823Z,98233.31
2023-05-14T03:08:02.191Z,98242.78
2023-05-14T03:10:28.703Z,98233.97
2023-05-14T03:12:55.296Z,98225.03
2023-05-14T03:15:21.896Z,98208.00
2023-05-14T03:17:49.191Z,98213.13
2023-05-14T03:20:15.856Z,98229.66
2023-05-14T03:22:42.604Z,98234.88
2023-05-14T03:25:09.354Z,98213.88
2023-05-14T03:27:36.034Z,98206.78
2023-05-14T03:30:02.592Z,98191.56
2023-05-14T03:32:30.220Z,98202.63
2023-05-14T03:34:57.151Z,98192.38
2023-05-14T03:37:24.462Z,98187.72
2023-05-14T03:39:50.991Z,98125.59
2023-05-14T03:42:17.470Z,98150.88
2023-05-14T03:44:44.248Z,98153.03
2023-05-14T03:47:10.944Z,98152.00
2023-05-14T03:49:40.482Z,98136.13
2023-05-14T03:52:07.026Z,98103.22
2023-05-14T03:54:33.687Z,98119.13
2023-05-14T03:57:00.223Z,98117.47
2023-05-14T03:59:26.961Z,98104.69
2023-05-14T04:01:53.538Z,98063.09
2023-05-14T04:04:20.259Z,98085.97
2023-05-14T04:06:46.853Z,98063.00
2023-05-14T04:09:13.525Z,98062.19
2023-05-14T04:11:40.084Z,98040.91
2023-05-14T04:14:06.931Z,98037.78
2023-05-14T04:16:33.560Z,98019.88
2023-05-14T04:19:02.513Z,98027.16
2023-05-14T04:21:29.247Z,98024.19
2023-05-14T04:23:55.757Z,97997.44
2023-05-14T04:26:22.336Z,97989.19
2023-05-14T04:28:48.921Z,97983.69
2023-05-14T04:31:15.892Z,97985.81
2023-05-14T04:33:42.440Z,97972.13
2023-05-14T04:36:09.070Z,97935.56
2023-05-14T04:38:36.493Z,97951.47
2023-05-14T04:41:03.019Z,97935.28
2023-05-14T04:43:29.578Z,97933.31
2023-05-14T04:45:56.194Z,97948.84
2023-05-14T04:48:22.751Z,97946.38
2023-05-14T04:50:49.362Z,97958.44
2023-05-14T04:53:15.922Z,97969.69
2023-05-14T04:55:42.440Z,97974.97
2023-05-14T04:58:09.198Z,97984.56
2023-05-14T05:00:35.765Z,97994.81
2023-05-14T05:03:02.321Z,98003.41
2023-05-14T05:05:29.097Z,98001.75
2023-05-14T05:07:55.706Z,98015.31
2023-05-14T05:10:22.570Z,98008.38
2023-05-14T05:12:49.190Z,98027.56
2023-05-14T05:15:16.148Z,98023.75
2023-05-14T05:17:43.917Z,98029.53
2023-05-14T05:20:11.024Z,98027.38
2023-05-14T05:22:37.575Z,98043.75
2023-05-14T05:25:08.164Z,98038.13
2023-05-14T05:27:34.987Z,98021.75
2023-05-14T05:30:02.237Z,98049.38
2023-05-14T05:32:29.123Z,98048.41
2023-05-14T05:34:56.069Z,98059.31
2023-05-14T05:37:22.675Z,98049.72
2023-05-14T05:39:49.488Z,98064.94
2023-05-14T05:42:16.027Z,98088.25
2023-05-14T05:44:42.573Z,98104.97
2023-05-14T05:47:09.189Z,98102.47
2023-05-14T05:49:36.940Z,98119.06
2023-05-14T05:52:04.362Z,98136.94
2023-05-14T05:54:32.269Z,98208.34
2023-05-14T05:56:59.425Z,98208.22
2023-05-14T05:59:26.598Z,98249.91
2023-05-14T06:01:53.358Z,98275.38
2023-05-14T06:04:20.290Z,98340.94
2023-05-14T06:06:46.807Z,98339.22
2023-05-14T06:09:13.476Z,98339.50
2023-05-14T06:11:40.043Z,98395.38
2023-05-14T06:14:06.727Z,98360.69
2023-05-14T06:16:33.429Z,98371.13
2023-05-14T06:19:00.115Z,98392.06
2023-05-14T06:21:26.676Z,98392.03
2023-05-14T06:23:53.221Z,98410.41
2023-05-14T06:26:19.716Z,98403.59
2023-05-14T06:28:46.320Z,98402.22
2023-05-14T06:31:13.705Z,98391.59
2023-05-14T06:33:40.507Z,98415.47
2023-05-14T06:36:07.969Z,98410.97
2023-05-14T06:38:35.070Z,98415.13
2023-05-14T06:41:01.739Z,98425.16
2023-05-14T06:43:28.565Z,98419.06
2023-05-14T06:45:55.068Z,98403.63
2023-05-14T06:48:21.795Z,98387.66
2023-05-14T06:50:49.334Z,98376.88
2023-05-14T06:53:16.482Z,98360.41
2023-05-14T06:55:43.290Z,98342.19
2023-05-14T06:58:09.989Z,98288.41
2023-05-14T07:00:36.606Z,98250.41
2023-05-14T07:03:04.251Z,98148.66
2023-05-14T07:05:30.924Z,98246.47
2023-05-14T07:07:57.737Z,98150.63
2023-05-14T07:10:25.203Z,98131.09
2023-05-14T07:12:51.965Z,98246.66
2023-05-14T07:15:18.600Z,98217.59
2023-05-14T07:17:45.210Z,98300.72
2023-05-14T07:20:12.374Z,98295.13
2023-05-14T07:22:38.915Z,98269.69
2023-05-14T07:25:06.399Z,98156.00
2023-05-14T07:27:32.856Z,98224.16
2023-05-14T07:29:59.442Z,98047.66
2023-05-14T07:32:26.021Z,98062.47
2023-05-14T07:34:52.597Z,97933.84
2023-05-14T07:37:19.195Z,98027.31
2023-05-14T07:39:45.824Z,97889.38
2023-05-14T07:42:19.376Z,97954.63
2023-05-14T07:44:52.026Z,97856.72
2023-05-14T07:47:18.672Z,97888.25
2023-05-14T07:49:45.364Z,97928.84
2023-05-14T07:52:12.031Z,97894.91
2023-05-14T07:54:38.753Z,97831.97
2023-05-14T07:57:05.402Z,98396.63
2023-05-14T07:59:32.156Z,98971.19
2023-05-14T08:01:58.773Z,98982.97
2023-05-14T08:04:25.489Z,99016.44
2023-05-14T08:06:52.203Z,99043.38
2023-05-14T08:09:18.759Z,99039.91
2023-05-14T08:11:45.367Z,99033.44
2023-05-14T08:14:12.001Z,99059.38
2023-05-14T08:16:38.885Z,99056.47
2023-05-14T08:19:05.641Z,99063.59
2023-05-14T08:21:32.816Z,99063.69
2023-05-14T08:23:59.864Z,99069.47
2023-05-14T08:26:26.517Z,99070.66
2023-05-14T08:28:54.277Z,99044.22
2023-05-14T08:31:20.828Z,99028.31
2023-05-14T08:33:47.472Z,99069.78
2023-05-14T08:36:14.239Z,99056.22
2023-05-14T08:38:42.078Z,99082.03
2023-05-14T08:41:09.172Z,99074.00
2023-05-14T08:43:51.009Z,99059.56
2023-05-14T08:46:22.520Z,99087.81
2023-05-14T08:48:57.753Z,99078.38
2023-05-14T08:51:26.457Z,99060.22
2023-05-14T08:53:53.389Z,99072.56
2023-05-14T08:56:19.973Z,99058.72
2023-05-14T08:58:46.504Z,99067.03
2023-05-14T09:01:13.039Z,99061.22
2023-05-14T09:03:39.873Z,99071.97
2023-05-14T09:06:07.672Z,99061.88
2023-05-14T09:08:36.408Z,99069.34
2023-05-14T09:11:03.040Z,99073.63
2023-05-14T09:13:29.563Z,99071.13
2023-05-14T09:15:57.419Z,99070.66
2023-05-14T09:18:24.599Z,99054.28
2023-05-14T09:20:52.375Z,99077.97
2023-05-14T09:23:18.996Z,99098.75
2023-05-14T09:25:48.439Z,99071.44
2023-05-14T09:28:17.387Z,99056.44
2023-05-14T09:30:50.413Z,99075.72
2023-05-14T09:33:27.885Z,99077.31
2023-05-14T09:36:02.612Z,99052.22
2023-05-14T09:38:33.084Z,99083.56
2023-05-14T09:41:00.811Z,99021.59
2023-05-14T09:43:27.393Z,99067.97
2023-05-14T09:45:54.055Z,99060.56
2023-05-14T09:48:22.336Z,99037.19
2023-05-14T09:50:49.046Z,99028.47
2023-05-14T09:53:15.831Z,99051.19
2023-05-14T09:55:42.641Z,99059.03
2023-05-14T09:58:09.187Z,99017.38
2023-05-14T10:00:36.069Z,99019.44
2023-05-14T10:03:08.282Z,99022.28
2023-05-14T10:05:41.400Z,99028.56
2023-05-14T10:08:26.814Z,99026.16
2023-05-14T10:10:54.850Z,99050.03
2023-05-14T10:13:24.560Z,99041.66
2023-05-14T10:15:59.515Z,99055.19
2023-05-14T10:18:29.960Z,99052.41
2023-05-14T10:21:06.679Z,99047.25
2023-05-14T10:23:34.710Z,99014.97
2023-05-14T10:26:01.877Z,99029.50
2023-05-14T10:28:28.682Z,99050.25
2023-05-14T10:30:55.186Z,99029.72
2023-05-14T10:33:22.295Z,99025.34
2023-05-14T10:36:02.997Z,99033.53
2023-05-14T10:38:32.383Z,99031.31
2023-05-14T10:41:12.351Z,99032.81
2023-05-14T10:43:40.753Z,99037.63
2023-05-14T10:46:09.590Z,99020.47
2023-05-14T10:48:39.173Z,99019.84
2023-05-14T10:51:09.182Z,99029.38
2023-05-14T10:53:41.460Z,99011.75
2023-05-14T10:56:12.657Z,99024.09
2023-05-14T10:58:41.813Z,99014.34
2023-05-14T11:01:10.273Z,99021.66
2023-05-14T11:03:45.545Z,99027.69
2023-05-14T11:06:15.397Z,99012.53
2023-05-14T11:08:42.852Z,99010.06
2023-05-14T11:11:09.848Z,98986.31
2023-05-14T11:13:36.462Z,98996.66
2023-05-14T11:16:15.068Z,98974.69
2023-05-14T11:18:53.752Z,98988.81
2023-05-14T11:21:20.528Z,98993.28
2023-05-14T11:23:48.241Z,98960.94
2023-05-14T11:26:15.340Z,98984.47
2023-05-14T11:28:41.978Z,99000.88
2023-05-14T11:31:08.497Z,98987.25
2023-05-14T11:33:36.173Z,98940.53
2023-05-14T11:36:02.740Z,98976.09
2023-05-14T11:38:29.269Z,98982.03
2023-05-14T11:40:57.901Z,98930.50
2023-05-14T11:43:24.892Z,98948.88
2023-05-14T11:45:52.806Z,98976.31
2023-05-14T11:48:20.628Z,98971.25
2023-05-14T11:50:52.048Z,98970.59
2023-05-14T11:53:20.158Z,98948.38
2023-05-14T11:55:47.618Z,98960.69
2023-05-14T11:58:14.342Z,98958.91
2023-05-14T12:00:41.537Z,98945.56
2023-05-14T12:03:10.218Z,98954.13
2023-05-14T12:05:39.168Z,98952.53
2023-05-14T12:08:28.032Z,98960.50
2023-05-14T12:10:54.768Z,98957.47
2023-05-14T12:13:21.810Z,98950.53
2023-05-14T12:16:00.481Z,98942.84
2023-05-14T12:18:28.747Z,98941.78
2023-05-14T12:20:56.193Z,98939.69
2023-05-14T12:23:32.957Z,98887.84
2023-05-14T12:26:07.598Z,98931.09
2023-05-14T12:28:37.672Z,98878.69
2023-05-14T12:31:05.493Z,98819.63
2023-05-14T12:33:32.222Z,98853.69
2023-05-14T12:36:07.400Z,98897.91
2023-05-14T12:38:41.337Z,98888.41
2023-05-14T12:41:07.919Z,98883.19
2023-05-14T12:43:34.492Z,98876.84
2023-05-14T12:46:01.116Z,98867.38
2023-05-14T12:48:27.896Z,98881.81
2023-05-14T12:50:54.520Z,98894.41
2023-05-14T12:53:21.046Z,98920.28
2023-05-14T12:55:47.636Z,98930.63
2023-05-14T12:58:14.203Z,98888.25
2023-05-14T13:00:41.191Z,98890.22
2023-05-14T13:03:08.113Z,98913.19
2023-05-14T13:05:34.794Z,98893.19
2023-05-14T13:08:04.005Z,98900.84
2023-05-14T13:10:30.584Z,98885.34
2023-05-14T13:12:57.884Z,98853.88
2023-05-14T13:15:24.691Z,98865.84
2023-05-14T13:17:51.646Z,98876.47
2023-05-14T13:20:18.423Z,98871.97
2023-05-14T13:22:45.129Z,98866.13
2023-05-14T13:25:11.674Z,98838.59
2023-05-14T13:27:38.226Z,98858.91
2023-05-14T13:30:05.153Z,98845.59
2023-05-14T13:32:31.735Z,98870.72
2023-05-14T13:34:58.300Z,98887.97
2023-05-14T13:37:25.754Z,98859.09
2023-05-14T13:39:52.358Z,98849.78
2023-05-14T13:42:18.939Z,98862.97
2023-05-14T13:44:45.512Z,98850.63
2023-05-14T13:47:12.137Z,98857.22
2023-05-14T13:49:38.759Z,98854.56
2023-05-14T13:52:06.247Z,98850.41
2023-05-14T13:54:32.806Z,98845.22
2023-05-14T13:56:59.371Z,98872.94
2023-05-14T13:59:26.096Z,98864.50
2023-05-14T14:01:52.803Z,98874.41
2023-05-14T14:04:20.306Z,98865.47
2023-05-14T14:06:46.837Z,98849.97
2023-05-14T14:09:13.920Z,98843.63
2023-05-14T14:11:41.412Z,98835.94
2023-05-14T14:14:08.278Z,98849.38
2023-05-14T14:16:35.019Z,98847.09
2023-05-14T14:19:01.820Z,98856.59
2023-05-14T14:21:28.717Z,98837.59
2023-05-14T14:23:55.358Z,98845.19
2023-05-14T14:26:22.023Z,98815.06
2023-05-14T14:28:48.522Z,98820.81
2023-05-14T14:31:16.987Z,98802.63
2023-05-14T14:33:43.618Z,98805.50
2023-05-14T14:36:10.178Z,98795.38
2023-05-14T14:38:37.607Z,98800.16
2023-05-14T14:41:04.391Z,98785.72
2023-05-14T14:43:31.703Z,98775.50
2023-05-14T14:45:58.720Z,98798.78
2023-05-14T14:48:40.002Z,98818.66
2023-05-14T14:51:07.856Z,98800.88
2023-05-14T14:53:35.826Z,98800.66
2023-05-14T14:56:02.793Z,98807.22
2023-05-14T14:58:29.476Z,98795.41
2023-05-14T15:00:57.253Z,98790.53
2023-05-14T15:03:24.930Z,98802.97
2023-05-14T15:05:53.373Z,98796.84
2023-05-14T15:08:20.916Z,98795.13
2023-05-14T15:10:47.587Z,98800.94
2023-05-14T15:13:14.424Z,98806.34
2023-05-14T15:15:42.156Z,98788.19
2023-05-14T15:18:08.772Z,98801.78
2023-05-14T15:20:35.517Z,98792.28
2023-05-14T15:23:02.704Z,98780.25
2023-05-14T15:25:29.393Z,98794.91
2023-05-14T15:27:55.938Z,98788.06
2023-05-14T15:30:22.679Z,98781.66
2023-05-14T15:32:49.549Z,98799.19
2023-05-14T15:35:16.385Z,98799.09
2023-05-14T15:37:44.284Z,98803.06
2023-05-14T15:40:12.131Z,98800.13
2023-05-14T15:42:44.121Z,98798.25
2023-05-14T15:45:12.756Z,98786.97
2023-05-14T15:47:40.031Z,98794.81
2023-05-14T15:50:07.647Z,98786.53
2023-05-14T15:52:36.365Z,98787.19
2023-05-14T15:55:05.163Z,98770.00
2023-05-14T15:57:31.782Z,98743.94
2023-05-14T15:59:58.275Z,98756.75
2023-05-14T16:02:24.895Z,98730.41
2023-05-14T16:04:51.491Z,98723.34
2023-05-14T16:07:18.231Z,98693.66
2023-05-14T16:09:44.788Z,98702.38
2023-05-14T16:12:12.484Z,98692.44
2023-05-14T16:14:41.755Z,98679.22
2023-05-14T16:17:09.233Z,98674.56
2023-05-14T16:19:35.851Z,98663.13
2023-05-14T16:22:02.602Z,98679.66
2023-05-14T16:24:29.400Z,98671.34
2023-05-14T16:26:56.222Z,98674.59
2023-05-14T16:29:22.925Z,98685.59
2023-05-14T16:31:49.754Z,98672.81
2023-05-14T16:34:16.410Z,98664.56
2023-05-14T16:36:43.286Z,98690.59
2023-05-14T16:39:09.990Z,98701.63
2023-05-14T16:41:36.728Z,98688.38
2023-05-14T16:44:03.652Z,98672.66
2023-05-14T16:46:31.282Z,98673.56
2023-05-14T16:48:57.991Z,98646.66
2023-05-14T16:51:24.533Z,98677.50
2023-05-14T16:53:52.083Z,98676.03
2023-05-14T16:56:19.125Z,98678.16
2023-05-14T16:58:45.992Z,98675.69
2023-05-14T17:01:12.655Z,98661.59
2023-05-14T17:03:39.326Z,98656.28
2023-05-14T17:06:06.630Z,98681.91
2023-05-14T17:08:35.417Z,98685.19
2023-05-14T17:11:06.164Z,98686.06
2023-05-14T17:13:33.174Z,98663.31
2023-05-14T17:16:00.578Z,98677.16
2023-05-14T17:18:27.495Z,98668.84
2023-05-14T17:20:54.129Z,98674.88
2023-05-14T17:23:20.752Z,98674.03
2023-05-14T17:25:47.249Z,98679.72
2023-05-14T17:28:14.154Z,98675.56
2023-05-14T17:30:41.020Z,98697.00
2023-05-14T17:33:07.664Z,98663.81
2023-05-14T17:35:36.342Z,98590.34
2023-05-14T17:38:03.645Z,98611.47
2023-05-14T17:40:30.406Z,98509.13
2023-05-14T17:42:56.991Z,97510.97
2023-05-14T17:45:23.708Z,97595.63
2023-05-14T17:47:51.450Z,97679.84
2023-05-14T17:50:18.852Z,97700.78
2023-05-14T17:52:48.769Z,97760.53
2023-05-14T17:55:17.483Z,97777.16
2023-05-14T17:57:44.061Z,97781.66
2023-05-14T18:00:11.157Z,97773.88
2023-05-14T18:02:38.278Z,97781.44
2023-05-14T18:05:06.212Z,97832.56
2023-05-14T18:07:33.011Z,97803.81
2023-05-14T18:09:59.606Z,97813.69
2023-05-14T18:12:27.447Z,97853.00
2023-05-14T18:14:54.055Z,97949.06
2023-05-14T18:17:20.915Z,97977.38
2023-05-14T18:19:48.045Z,98036.75
2023-05-14T18:22:15.570Z,98054.34
2023-05-14T18:24:44.111Z,98037.69
2023-05-14T18:27:11.085Z,98038.25
2023-05-14T18:29:37.765Z,98061.97
2023-05-14T18:32:04.777Z,98062.72
2023-05-14T18:34:31.394Z,98094.19
2023-05-14T18:36:58.385Z,98094.25
2023-05-14T18:39:24.893Z,98071.97
2023-05-14T18:41:52.176Z,98035.69
2023-05-14T18:44:18.843Z,98058.75
2023-05-14T18:46:46.045Z,98028.94
2023-05-14T18:49:12.770Z,97977.00
2023-05-14T18:51:39.483Z,97953.97
2023-05-14T18:54:06.004Z,97943.91
2023-05-14T18:56:32.614Z,97870.28
2023-05-14T18:58:59.731Z,97863.41
2023-05-14T19:01:26.480Z,97838.88
2023-05-14T19:03:53.310Z,97835.84
2023-05-14T19:06:19.979Z,97834.75
2023-05-14T19:08:46.569Z,97827.22
2023-05-14T19:11:13.118Z,97814.06
2023-05-14T19:13:39.912Z,97830.19
2023-05-14T19:16:06.676Z,97809.31
2023-05-14T19:18:33.611Z,97806.00
2023-05-14T19:21:00.456Z,97801.25
2023-05-14T19:23:26.986Z,97775.06
2023-05-14T19:25:53.502Z,97788.59
2023-05-14T19:28:20.335Z,97767.19
2023-05-14T19:30:47.780Z,97760.94
2023-05-14T19:33:14.385Z,97645.22
2023-05-14T19:35:41.014Z,97712.78
2023-05-14T19:38:11.093Z,97692.00
2023-05-14T19:40:37.663Z,97670.13
2023-05-14T19:43:04.252Z,97662.78
2023-05-14T19:45:30.807Z,97633.47
2023-05-14T19:47:57.810Z,97594.31
2023-05-14T19:50:24.394Z,97586.13
2023-05-14T19:52:51.019Z,97548.75
2023-05-14T19:55:17.591Z,97502.81
2023-05-14T19:57:44.065Z,97545.91
2023-05-14T20:00:11.535Z,97508.78
2023-05-14T20:02:40.531Z,97496.28
2023-05-14T20:05:13.521Z,97477.47
2023-05-14T20:07:40.614Z,97435.66
2023-05-14T20:10:07.852Z,97397.88
2023-05-14T20:12:34.375Z,97351.94
2023-05-14T20:15:00.956Z,97314.56
2023-05-14T20:17:27.524Z,97281.88
2023-05-14T20:19:54.361Z,97237.84
2023-05-14T20:22:20.948Z,97199.50
2023-05-14T20:24:47.734Z,97161.34
2023-05-14T20:27:14.398Z,97118.72
2023-05-14T20:29:41.425Z,97066.34
2023-05-14T20:32:08.232Z,97039.44
2023-05-14T20:34:34.794Z,96992.88
2023-05-14T20:37:01.348Z,96967.38
2023-05-14T20:39:28.513Z,96957.38
2023-05-14T20:41:55.105Z,96938.97
2023-05-14T20:44:21.670Z,96932.84
2023-05-14T20:46:48.257Z,96923.06
2023-05-14T20:49:14.960Z,96909.63
2023-05-14T20:51:41.785Z,96906.31
2023-05-14T20:54:08.524Z,96905.47
2023-05-14T20:56:36.573Z,96893.63
2023-05-14T20:59:03.172Z,96859.19
2023-05-14T21:01:29.782Z,96830.41
2023-05-14T21:03:56.470Z,96824.31
2023-05-14T21:06:23.242Z,96795.78
2023-05-14T21:08:50.386Z,96764.38
2023-05-14T21:11:16.980Z,96778.84
2023-05-14T21:13:44.568Z,96782.72
2023-05-14T21:16:12.811Z,96763.97
2023-05-14T21:18:39.477Z,96736.63
2023-05-14T21:21:06.020Z,96725.63
2023-05-14T21:23:33.078Z,96734.59
2023-05-14T21:25:59.717Z,96724.00
2023-05-14T21:28:26.318Z,96701.16
2023-05-14T21:30:53.038Z,96691.75
2023-05-14T21:33:19.633Z,96690.94
2023-05-14T21:35:46.230Z,96692.97
2023-05-14T21:38:12.885Z,96675.84
2023-05-14T21:40:39.486Z,96693.81
2023-05-14T21:43:06.095Z,96696.88
2023-05-14T21:45:32.628Z,96667.34
2023-05-14T21:47:59.251Z,96675.06
2023-05-14T21:50:27.212Z,96666.91
2023-05-14T21:52:53.935Z,96626.81
2023-05-14T21:55:20.567Z,96621.50
2023-05-14T21:57:47.448Z,96592.16
2023-05-14T22:00:18.518Z,96562.38
2023-05-14T22:02:45.139Z,96519.00
2023-05-14T22:05:11.713Z,96548.28
2023-05-14T22:07:38.205Z,96535.84
2023-05-14T22:10:05.051Z,96578.66
2023-05-14T22:12:31.596Z,96588.22
2023-05-14T22:15:00.044Z,96595.38
2023-05-14T22:17:28.385Z,96598.06
2023-05-14T22:19:54.904Z,96588.72
2023-05-14T22:22:21.502Z,96565.44
2023-05-14T22:24:48.039Z,96536.53
2023-05-14T22:27:14.608Z,96507.94
2023-05-14T22:29:41.818Z,96500.53
2023-05-14T22:32:09.714Z,96478.88
2023-05-14T22:34:37.196Z,96489.44
2023-05-14T22:37:04.148Z,96498.03
2023-05-14T22:39:30.672Z,96514.56
2023-05-14T22:41:57.330Z,96514.44
2023-05-14T22:44:24.119Z,96528.31
2023-05-14T22:46:50.831Z,96565.78
2023-05-14T22:49:17.500Z,96581.69
2023-05-14T22:51:44.095Z,96591.28
2023-05-14T22:54:10.737Z,96631.41
2023-05-14T22:56:39.684Z,96618.75
2023-05-14T22:59:06.243Z,96597.81
2023-05-14T23:01:32.850Z,96628.13
2023-05-14T23:03:59.427Z,96594.34
2023-05-14T23:06:26.087Z,96608.16
2023-05-14T23:08:52.682Z,96606.72
2023-05-14T23:11:19.269Z,96600.38
2023-05-14T23:13:46.210Z,96597.00
2023-05-14T23:16:12.849Z,96628.53
2023-05-14T23:18:39.556Z,96625.66
2023-05-14T23:21:07.210Z,96642.19
2023-05-14T23:23:33.923Z,96670.94
2023-05-14T23:26:00.714Z,96667.09
2023-05-14T23:28:27.229Z,96714.19
2023-05-14T23:30:53.789Z,96724.41
2023-05-14T23:33:20.495Z,96756.22
2023-05-14T23:35:48.603Z,96783.13
2023-05-14T23:38:15.455Z,96777.59
2023-05-14T23:40:42.060Z,96707.41
2023-05-14T23:43:08.737Z,96749.88
2023-05-14T23:45:35.640Z,96772.09
2023-05-14T23:48:02.547Z,96778.63
2023-05-14T23:50:29.154Z,96768.16
2023-05-14T23:52:56.000Z,96760.63
2023-05-14T23:55:22.734Z,96754.91
2023-05-14T23:57:49.576Z,96745.53
